Greenbrier Valley Airport Lewisburg US
ICAO: KLWB
IATA: LWB
Category: Medium
Scheduled Services: No

Elevation: 2302 ft
TransAlt. 18000 ft.

Airport Communications:
AWOS 3:121.4
CLNC DEL:120.85
WASHINGTON CNTR:134.4
CTAF:118.9
GND:121.9
LEWISBURG TWR:118.9
UNICOM:122.95

KLWB Zoom In..

Runways:

(A) RW 04 length 7003 ft width 150 ft
ILS 110.35 / hdg 43

(B) RW 22 length 7003 ft width 150 ft
---- / hdg 223

Location; KLWB
Day. 24 / Time. 01.35 Zulu
* Altimeter: 29.95
* Temperature: 04° c. 39.2°f.
* Wind from: 320° Speed 06 kn.
Dewpoint: -03° c.
Visibility: 10 Statute Miles.
Clouds: Overcast 4400 ft.

KLWB 240135Z AUTO 32006KT 270V360 10SM OVC044 04/M03 A2995 RMK AO2 T00371031


Wind From 320°
Speed 06 kn.

YouTube Music Video
 
jpsmedia.com for Web Design  worldairports.se 2018   terms of use